Time;durP1;ratioP1;P1;durP2;ratioP2;P2;SDS_P1;SDS_P2;PMS_P1;PMS_P2;Temp;Humidity;BMP_temperature;BMP_pressure;BME280_temperature;BME280_humidity;BME280_pressure;Samples;Min_cycle;Max_cycle;Signal;HPM_P1;HPM_P2
2023/09/16 00:01:28;;;;;;;0.10;0.10;;;;;;;16.67;100.00;98979.31;5092873;28;20273;-55
2023/09/16 00:04:15;;;;;;;0.10;0.10;;;;;;;16.59;100.00;98981.84;5094167;28;20720;-55
2023/09/16 00:07:02;;;;;;;0.13;0.13;;;;;;;16.45;100.00;98971.59;5094186;28;20198;-55
2023/09/16 00:09:51;;;;;;;0.10;0.10;;;;;;;16.62;100.00;98970.91;5094091;28;20191;-55
2023/09/16 00:12:37;;;;;;;0.10;0.10;;;;;;;16.73;100.00;98972.59;5093954;28;20302;-55
2023/09/16 00:15:25;;;;;;;0.10;0.10;;;;;;;16.74;100.00;98969.78;5092501;28;20195;-55
2023/09/16 00:18:12;;;;;;;0.20;0.20;;;;;;;16.57;100.00;98973.13;5093919;28;20265;-54
2023/09/16 00:20:59;;;;;;;0.10;0.10;;;;;;;16.45;100.00;98971.59;5093810;28;20309;-54
2023/09/16 00:23:45;;;;;;;0.10;0.10;;;;;;;16.35;100.00;98984.09;5093471;28;20238;-54
2023/09/16 00:26:34;;;;;;;0.20;0.20;;;;;;;16.26;100.00;98983.94;5093558;28;20194;-55
2023/09/16 00:29:21;;;;;;;0.20;0.20;;;;;;;16.25;100.00;98989.44;5093572;28;20201;-55
2023/09/16 00:32:08;;;;;;;0.10;0.10;;;;;;;15.90;100.00;98993.41;5092570;28;20194;-54
2023/09/16 00:34:55;;;;;;;0.20;0.20;;;;;;;15.90;100.00;98992.56;5093655;28;20190;-54
2023/09/16 00:37:43;;;;;;;0.10;0.10;;;;;;;16.08;100.00;98982.09;5093362;28;20374;-55
2023/09/16 00:40:31;;;;;;;0.10;0.10;;;;;;;16.02;100.00;98978.16;5093645;28;20237;-55
2023/09/16 00:43:19;;;;;;;0.10;0.10;;;;;;;15.93;100.00;98995.84;5093226;28;20214;-55
2023/09/16 00:46:06;;;;;;;0.10;0.10;;;;;;;16.04;100.00;98986.88;5091075;28;20186;-54
2023/09/16 00:48:53;;;;;;;0.20;0.20;;;;;;;16.00;100.00;98991.63;5093485;28;20190;-54
2023/09/16 00:51:44;;;;;;;0.10;0.10;;;;;;;15.90;100.00;98985.41;5093365;28;20190;-54
2023/09/16 00:54:32;;;;;;;0.17;0.17;;;;;;;15.91;100.00;98983.56;5092805;28;20203;-55
2023/09/16 00:57:20;;;;;;;0.10;0.10;;;;;;;16.02;100.00;98988.84;5093327;28;20190;-55
2023/09/16 01:00:10;;;;;;;0.20;0.20;;;;;;;15.94;100.00;98981.50;5093060;28;20276;-55
2023/09/16 01:02:59;;;;;;;0.10;0.10;;;;;;;15.74;100.00;98985.09;5091810;28;20751;-55
2023/09/16 01:05:48;;;;;;;0.20;0.20;;;;;;;15.93;100.00;98978.97;5093106;28;20195;-54
2023/09/16 01:08:35;;;;;;;0.20;0.20;;;;;;;15.86;100.00;98975.16;5093021;28;20198;-55
2023/09/16 01:11:24;;;;;;;0.20;0.20;;;;;;;15.68;100.00;98981.13;5091944;28;20198;-54
2023/09/16 01:14:12;;;;;;;0.10;0.10;;;;;;;15.76;100.00;98983.13;5092949;28;20206;-54
2023/09/16 01:17:06;;;;;;;0.10;0.10;;;;;;;15.61;100.00;98981.78;5091758;28;20195;-55
2023/09/16 01:20:00;;;;;;;0.20;0.20;;;;;;;15.55;100.00;98985.81;5092970;28;20202;-54
2023/09/16 01:22:49;;;;;;;0.10;0.10;;;;;;;15.44;100.00;98984.09;5092612;28;20292;-54
2023/09/16 01:25:37;;;;;;;0.13;0.13;;;;;;;15.44;100.00;98989.44;5093001;28;20194;-55
2023/09/16 01:28:25;;;;;;;0.20;0.20;;;;;;;15.51;100.00;98983.53;5092886;28;20222;-54
2023/09/16 01:31:12;;;;;;;0.10;0.10;;;;;;;15.49;100.00;98981.00;5091474;28;20353;-54
2023/09/16 01:34:03;;;;;;;0.10;0.10;;;;;;;15.61;100.00;98984.47;5091826;28;20183;-54
2023/09/16 01:36:53;;;;;;;0.20;0.20;;;;;;;15.81;100.00;98980.88;5092811;28;20195;-54
2023/09/16 01:39:41;;;;;;;0.10;0.10;;;;;;;15.66;100.00;98974.22;5092864;28;20728;-54
2023/09/16 01:42:32;;;;;;;0.20;0.20;;;;;;;15.61;100.00;98987.13;5091538;28;20225;-54
2023/09/16 01:45:19;;;;;;;0.10;0.10;;;;;;;15.59;100.00;98978.38;5091544;28;20253;-55
2023/09/16 01:48:06;;;;;;;0.10;0.10;;;;;;;15.55;100.00;98979.66;5092693;28;20226;-54
2023/09/16 01:50:53;;;;;;;0.10;0.10;;;;;;;15.44;100.00;98986.75;5092584;28;20199;-55
2023/09/16 01:53:40;;;;;;;0.10;0.10;;;;;;;15.44;100.00;98983.22;5093154;28;20199;-54
2023/09/16 01:56:27;;;;;;;0.10;0.10;;;;;;;15.54;100.00;98981.47;5091770;28;20195;-55
2023/09/16 01:59:15;;;;;;;0.10;0.10;;;;;;;15.63;100.00;98985.16;5091434;28;20206;-55
2023/09/16 02:02:02;;;;;;;0.20;0.20;;;;;;;15.70;100.00;98979.16;5090175;28;20222;-55
2023/09/16 02:04:49;;;;;;;0.20;0.20;;;;;;;15.77;100.00;98982.13;5091685;28;20329;-55
2023/09/16 02:07:36;;;;;;;0.20;0.20;;;;;;;15.94;100.00;98973.47;5092868;28;20207;-54
2023/09/16 02:10:23;;;;;;;0.10;0.10;;;;;;;15.89;100.00;98970.38;5095337;28;20198;-55
2023/09/16 02:13:11;;;;;;;0.10;0.10;;;;;;;15.81;100.00;98978.22;5095346;28;20661;-54
2023/09/16 02:16:01;;;;;;;0.10;0.10;;;;;;;15.64;100.00;98971.72;5093809;28;20350;-55
2023/09/16 02:18:49;;;;;;;0.20;0.20;;;;;;;15.60;100.00;98977.41;5095191;28;20198;-55
2023/09/16 02:21:36;;;;;;;0.10;0.10;;;;;;;15.47;100.00;98977.63;5096121;28;20678;-54
2023/09/16 02:24:23;;;;;;;0.20;0.20;;;;;;;15.60;100.00;98982.75;5095741;28;20728;-54
2023/09/16 02:27:10;;;;;;;0.10;0.10;;;;;;;15.68;100.00;98975.78;5095067;28;20306;-55
2023/09/16 02:29:57;;;;;;;0.10;0.10;;;;;;;15.48;100.00;98975.81;5094951;28;20199;-55
2023/09/16 02:32:45;;;;;;;0.10;0.10;;;;;;;15.43;100.00;98985.03;5095895;28;20191;-54
2023/09/16 02:35:32;;;;;;;0.10;0.10;;;;;;;15.67;100.00;98987.44;5094964;28;20191;-55
2023/09/16 02:38:19;;;;;;;0.20;0.20;;;;;;;15.61;100.00;98981.78;5094789;28;20199;-55
2023/09/16 02:41:06;;;;;;;0.10;0.10;;;;;;;15.58;100.00;98974.88;5094734;28;20217;-55
2023/09/16 02:43:55;;;;;;;0.10;0.10;;;;;;;15.65;100.00;98980.56;5094505;28;20234;-55
2023/09/16 02:46:42;;;;;;;0.10;0.10;;;;;;;15.46;100.00;98973.28;5093439;28;20194;-55
2023/09/16 02:49:32;;;;;;;0.10;0.10;;;;;;;15.30;100.00;98970.25;5095654;28;20256;-55
2023/09/16 02:52:20;;;;;;;0.10;0.10;;;;;;;15.35;100.00;98976.88;5094594;28;20191;-55
2023/09/16 02:55:10;;;;;;;0.10;0.10;;;;;;;15.52;100.00;98971.88;5095656;28;20195;-54
2023/09/16 02:58:00;;;;;;;0.10;0.10;;;;;;;15.72;100.00;98968.34;5093984;28;20206;-55
2023/09/16 03:00:47;;;;;;;0.10;0.10;;;;;;;15.82;100.00;98968.38;5102885;28;20206;-55
2023/09/16 03:03:35;;;;;;;0.20;0.20;;;;;;;15.56;100.00;98963.47;5114578;28;20803;-55
2023/09/16 03:06:24;;;;;;;0.10;0.10;;;;;;;15.67;100.00;98963.41;5114699;28;20270;-55
2023/09/16 03:09:11;;;;;;;0.20;0.20;;;;;;;15.72;100.00;98960.31;5114707;28;20613;-54
2023/09/16 03:11:58;;;;;;;0.10;0.10;;;;;;;15.50;100.00;98956.00;5114651;28;20206;-55
2023/09/16 03:14:48;;;;;;;0.20;0.20;;;;;;;15.49;100.00;98958.81;5114668;28;20296;-54
2023/09/16 03:17:35;;;;;;;0.10;0.10;;;;;;;15.43;100.00;98960.19;5115155;28;20279;-55
2023/09/16 03:20:22;;;;;;;0.20;0.20;;;;;;;15.44;100.00;98967.19;5114389;28;20375;-55
2023/09/16 03:23:12;;;;;;;0.10;0.10;;;;;;;15.55;100.00;98961.81;5115094;28;20287;-55
2023/09/16 03:26:00;;;;;;;0.10;0.10;;;;;;;15.41;100.00;98954.13;5114027;28;20210;-54
2023/09/16 03:28:48;;;;;;;0.10;0.10;;;;;;;15.48;100.00;98954.47;5113899;28;20305;-54
2023/09/16 03:31:41;;;;;;;0.10;0.10;;;;;;;15.52;100.00;98946.03;5112874;28;20309;-55
2023/09/16 03:34:36;;;;;;;0.10;0.10;;;;;;;15.57;100.00;98948.31;5114151;28;20194;-54
2023/09/16 03:37:23;;;;;;;0.10;0.10;;;;;;;15.63;100.00;98953.13;5114073;28;20237;-55
2023/09/16 03:40:14;;;;;;;0.20;0.20;;;;;;;15.41;100.00;98949.63;5114067;28;20317;-55
2023/09/16 03:43:00;;;;;;;0.10;0.10;;;;;;;15.48;100.00;98947.28;5113846;28;20633;-55
2023/09/16 03:45:47;;;;;;;0.10;0.10;;;;;;;15.37;100.00;98950.06;5112617;28;20311;-55
2023/09/16 03:48:35;;;;;;;0.20;0.20;;;;;;;15.40;100.00;98947.94;5113915;28;20214;-54
2023/09/16 03:51:22;;;;;;;0.10;0.10;;;;;;;15.07;100.00;98948.22;5113822;28;20271;-54
2023/09/16 03:54:13;;;;;;;0.10;0.10;;;;;;;15.06;100.00;98944.72;5113789;28;20783;-55
2023/09/16 03:57:03;;;;;;;0.10;0.10;;;;;;;15.05;100.00;98953.66;5113810;28;20194;-55
2023/09/16 03:59:50;;;;;;;0.10;0.10;;;;;;;15.13;100.00;98948.50;5113742;28;20269;-55
2023/09/16 04:02:38;;;;;;;0.20;0.20;;;;;;;14.88;100.00;98948.94;5113593;28;20214;-54
2023/09/16 04:05:25;;;;;;;0.10;0.10;;;;;;;15.41;100.00;98948.81;5113516;28;20212;-55
2023/09/16 04:08:11;;;;;;;0.10;0.10;;;;;;;15.32;100.00;98950.44;5114498;28;20667;-55
2023/09/16 04:10:58;;;;;;;0.10;0.10;;;;;;;15.25;100.00;98945.75;5114469;28;20259;-54
2023/09/16 04:13:46;;;;;;;0.10;0.10;;;;;;;15.38;100.00;98941.06;5114619;28;20193;-55
2023/09/16 04:16:34;;;;;;;0.10;0.10;;;;;;;14.97;100.00;98948.16;5112120;28;20206;-54
2023/09/16 04:19:21;;;;;;;0.10;0.10;;;;;;;14.92;100.00;98952.19;5113225;28;20190;-55
2023/09/16 04:22:08;;;;;;;0.10;0.10;;;;;;;14.78;100.00;98956.03;5114102;28;20230;-54
2023/09/16 04:24:55;;;;;;;0.10;0.10;;;;;;;14.91;100.00;98946.00;5112998;28;20218;-54
2023/09/16 04:27:42;;;;;;;0.10;0.10;;;;;;;14.92;100.00;98952.19;5113203;28;20268;-54
2023/09/16 04:30:31;;;;;;;0.10;0.10;;;;;;;14.74;100.00;98950.09;5110883;28;20193;-55
2023/09/16 04:33:18;;;;;;;0.20;0.20;;;;;;;14.83;100.00;98957.31;5113078;28;20194;-54
2023/09/16 04:36:05;;;;;;;0.20;0.20;;;;;;;14.91;100.00;98956.69;5113114;28;20198;-54
2023/09/16 04:38:53;;;;;;;0.10;0.10;;;;;;;14.92;100.00;98962.84;5112972;28;20202;-55
2023/09/16 04:41:40;;;;;;;0.20;0.20;;;;;;;14.80;100.00;98964.75;5112927;28;20194;-54
2023/09/16 04:44:27;;;;;;;0.20;0.20;;;;;;;14.69;100.00;98954.16;5112650;28;20259;-55
2023/09/16 04:47:17;;;;;;;0.10;0.10;;;;;;;14.94;100.00;98955.56;5111551;28;20260;-55
2023/09/16 04:50:07;;;;;;;0.20;0.20;;;;;;;14.72;100.00;98951.22;5112769;28;20198;-54
2023/09/16 04:52:55;;;;;;;0.10;0.10;;;;;;;14.68;100.00;98949.78;5112736;28;20222;-55
2023/09/16 04:55:42;;;;;;;0.10;0.10;;;;;;;14.98;100.00;98952.53;5113737;28;20224;-55
2023/09/16 04:58:28;;;;;;;0.20;0.20;;;;;;;14.81;100.00;98951.28;5113588;28;20212;-55
2023/09/16 05:01:17;;;;;;;0.20;0.20;;;;;;;14.77;100.00;98946.34;5111297;28;20226;-54
2023/09/16 05:04:05;;;;;;;0.10;0.10;;;;;;;14.76;100.00;98949.97;5112471;28;20218;-54
2023/09/16 05:06:52;;;;;;;0.10;0.10;;;;;;;14.84;100.00;98951.00;5112292;28;20267;-55
2023/09/16 05:09:39;;;;;;;0.10;0.10;;;;;;;14.72;100.00;98952.06;5112466;28;20205;-54
2023/09/16 05:12:26;;;;;;;0.10;0.10;;;;;;;14.76;100.00;98955.28;5112442;28;20324;-54
2023/09/16 05:15:13;;;;;;;0.10;0.10;;;;;;;14.96;100.00;98945.59;5110878;28;20189;-55
2023/09/16 05:18:00;;;;;;;0.10;0.10;;;;;;;14.91;100.00;98946.00;5113410;28;20209;-55
2023/09/16 05:20:53;;;;;;;0.10;0.10;;;;;;;14.87;100.00;98940.09;5112412;28;20335;-55
2023/09/16 05:23:41;;;;;;;0.10;0.10;;;;;;;14.85;100.00;98941.19;5111636;28;20234;-55
2023/09/16 05:26:31;;;;;;;0.10;0.10;;;;;;;15.30;100.00;98940.88;5113101;28;20706;-55
2023/09/16 05:29:18;;;;;;;0.10;0.10;;;;;;;15.07;100.00;98938.41;5112340;28;20193;-55
2023/09/16 05:32:05;;;;;;;0.10;0.10;;;;;;;14.96;100.00;98934.94;5110797;28;20198;-55
2023/09/16 05:34:54;;;;;;;0.17;0.17;;;;;;;14.92;100.00;98931.69;5112224;28;20251;-55
2023/09/16 05:37:42;;;;;;;0.10;0.10;;;;;;;15.03;100.00;98936.09;5112220;28;20232;-54
2023/09/16 05:40:29;;;;;;;0.10;0.10;;;;;;;15.07;100.00;98940.22;5113050;28;20190;-54
2023/09/16 05:43:16;;;;;;;0.10;0.10;;;;;;;14.95;100.00;98941.25;5116380;28;20190;-55
2023/09/16 05:46:05;;;;;;;0.10;0.10;;;;;;;15.01;100.00;98952.25;5114705;28;20218;-55
2023/09/16 05:48:56;;;;;;;0.10;0.10;;;;;;;15.09;100.00;98943.59;5116279;28;20296;-55
2023/09/16 05:51:43;;;;;;;0.10;0.10;;;;;;;15.07;100.00;98934.88;5116135;28;20198;-54
2023/09/16 05:54:31;;;;;;;0.10;0.10;;;;;;;15.31;100.00;98946.09;5117126;28;20190;-54
2023/09/16 05:57:20;;;;;;;0.10;0.10;;;;;;;15.29;100.00;98937.38;5116112;28;20190;-55
2023/09/16 06:00:09;;;;;;;0.20;0.20;;;;;;;15.33;100.00;98938.78;5114318;28;20198;-54
2023/09/16 06:02:57;;;;;;;0.10;0.10;;;;;;;15.32;100.00;98933.59;5116742;28;20664;-55
2023/09/16 06:05:44;;;;;;;0.10;0.10;;;;;;;15.51;100.00;98946.16;5116453;28;20218;-55
2023/09/16 06:08:31;;;;;;;0.20;0.20;;;;;;;15.39;100.00;98938.25;5116690;28;20206;-55
2023/09/16 06:11:20;;;;;;;0.10;0.10;;;;;;;15.42;100.00;98943.31;5115727;28;20194;-55
2023/09/16 06:14:07;;;;;;;0.10;0.10;;;;;;;15.56;100.00;98941.28;5115794;28;20305;-54
2023/09/16 06:16:54;;;;;;;0.10;0.10;;;;;;;15.74;100.00;98929.84;5114366;28;20327;-55
2023/09/16 06:19:41;;;;;;;0.10;0.10;;;;;;;15.55;100.00;98940.44;5116618;28;20202;-55
2023/09/16 06:22:28;;;;;;;0.10;0.10;;;;;;;15.94;100.00;98938.75;5115463;28;20348;-55
2023/09/16 06:25:15;;;;;;;0.10;0.10;;;;;;;16.01;100.00;98941.69;5116470;28;20337;-55
2023/09/16 06:28:05;;;;;;;0.10;0.10;;;;;;;16.07;100.00;98941.16;5115436;28;20278;-55
2023/09/16 06:30:54;;;;;;;0.10;0.10;;;;;;;16.24;100.00;98927.13;5114098;28;20199;-55
2023/09/16 06:33:42;;;;;;;0.10;0.10;;;;;;;16.24;100.00;98927.13;5115462;28;20198;-55
2023/09/16 06:36:29;;;;;;;0.10;0.10;;;;;;;16.26;100.00;98941.19;5116204;28;20190;-55
2023/09/16 06:39:15;;;;;;;0.10;0.10;;;;;;;16.29;100.00;98938.22;5115361;28;20221;-55
2023/09/16 06:42:04;;;;;;;0.10;0.10;;;;;;;16.34;100.00;98937.81;5115326;28;20194;-55
2023/09/16 06:44:55;;;;;;;0.10;0.10;;;;;;;16.28;100.00;98944.56;5114839;28;20265;-55
2023/09/16 06:47:42;;;;;;;0.10;0.10;;;;;;;16.47;100.00;98935.69;5114961;28;20228;-55
2023/09/16 06:50:29;;;;;;;0.10;0.10;;;;;;;16.52;100.00;98940.63;5116036;28;20190;-55
2023/09/16 06:53:19;;;;;;;0.10;0.10;;;;;;;16.65;100.00;98938.50;5114736;28;20199;-55
2023/09/16 06:56:06;;;;;;;0.10;0.10;;;;;;;16.93;100.00;98939.50;5115890;28;20189;-55
2023/09/16 06:58:56;;;;;;;0.10;0.10;;;;;;;17.11;100.00;98934.25;5115876;28;20187;-55
2023/09/16 07:01:44;;;;;;;0.10;0.10;;;;;;;17.30;100.00;98936.03;5102269;28;20250;-55
2023/09/16 07:04:31;;;;;;;0.10;0.10;;;;;;;17.53;100.00;98936.47;5095250;28;20264;-55
2023/09/16 07:07:20;;;;;;;0.10;0.10;;;;;;;17.68;100.00;98932.34;5095325;28;20195;-55
2023/09/16 07:10:07;;;;;;;0.10;0.10;;;;;;;17.84;100.00;98935.22;5095045;28;20195;-55
2023/09/16 07:12:54;;;;;;;0.10;0.10;;;;;;;18.01;100.00;98934.41;5095195;28;20194;-55
2023/09/16 07:15:41;;;;;;;0.10;0.10;;;;;;;18.17;100.00;98924.88;5093799;28;20178;-55
2023/09/16 07:18:30;;;;;;;0.10;0.10;;;;;;;18.34;100.00;98931.25;5094930;28;20191;-55
2023/09/16 07:21:17;;;;;;;0.10;0.10;;;;;;;18.57;100.00;98935.97;5094992;28;20194;-55
2023/09/16 07:24:04;;;;;;;0.10;0.10;;;;;;;18.90;100.00;98938.94;5094465;28;20231;-55
2023/09/16 07:26:51;;;;;;;0.10;0.10;;;;;;;19.07;100.00;98934.53;5094487;28;20360;-55
2023/09/16 07:29:38;;;;;;;0.10;0.10;;;;;;;19.31;100.00;98921.28;5094868;28;20199;-55
2023/09/16 07:32:25;;;;;;;0.10;0.10;;;;;;;19.33;100.00;98929.19;5094433;28;20191;-56
2023/09/16 07:35:13;;;;;;;0.10;0.10;;;;;;;19.63;100.00;98931.38;5093644;28;20187;-55
2023/09/16 07:38:00;;;;;;;0.10;0.10;;;;;;;19.96;100.00;98924.25;5094714;28;20203;-56
2023/09/16 07:40:47;;;;;;;0.10;0.10;;;;;;;20.04;100.00;98920.75;5094671;28;20280;-55
2023/09/16 07:43:33;;;;;;;0.10;0.10;;;;;;;20.25;100.00;98917.59;5094706;28;20197;-55
2023/09/16 07:46:20;;;;;;;0.10;0.10;;;;;;;20.33;100.00;98924.84;5093048;28;20215;-55
2023/09/16 07:49:07;;;;;;;0.10;0.10;;;;;;;20.76;100.00;98921.03;5094437;28;20195;-56
2023/09/16 07:51:57;;;;;;;0.00;0.00;;;;;;;20.63;100.00;98920.69;5090805;28;20268;-56
2023/09/16 07:54:45;;;;;;;0.10;0.10;;;;;;;20.63;100.00;98920.69;5093777;28;20194;-55
2023/09/16 07:57:32;;;;;;;0.10;0.10;;;;;;;21.18;100.00;98922.66;5093667;28;20309;-55
2023/09/16 08:00:19;;;;;;;0.10;0.10;;;;;;;21.31;100.00;98926.53;5092166;28;20206;-56
2023/09/16 08:03:06;;;;;;;0.10;0.10;;;;;;;21.26;100.00;98928.03;5093464;28;20217;-55
2023/09/16 08:05:53;;;;;;;0.10;0.10;;;;;;;21.36;100.00;98931.41;5112695;28;20340;-55
2023/09/16 08:08:42;;;;;;;0.10;0.10;;;;;;;21.56;100.00;98930.00;5113717;28;20194;-55
2023/09/16 08:11:29;;;;;;;0.10;0.10;;;;;;;21.73;100.00;98935.34;5113229;28;20350;-55
2023/09/16 08:14:16;;;;;;;0.10;0.10;;;;;;;22.01;100.00;98941.94;5113211;28;20233;-55
2023/09/16 08:17:03;;;;;;;0.10;0.10;;;;;;;21.84;100.00;98949.28;5112239;28;20685;-56
2023/09/16 08:19:50;;;;;;;0.10;0.10;;;;;;;21.88;100.00;98938.97;5113334;28;20248;-56
2023/09/16 08:22:37;;;;;;;0.10;0.10;;;;;;;21.96;100.00;98941.63;5112604;28;20241;-55
2023/09/16 08:25:27;;;;;;;0.10;0.10;;;;;;;22.10;100.00;98935.53;5113149;28;20206;-55
2023/09/16 08:28:17;;;;;;;0.20;0.20;;;;;;;22.21;100.00;98935.13;5113137;28;20209;-55
2023/09/16 08:31:05;;;;;;;0.10;0.10;;;;;;;22.38;100.00;98926.91;5110976;28;20198;-55
2023/09/16 08:33:52;;;;;;;0.10;0.10;;;;;;;22.54;100.00;98919.53;5111773;28;20197;-55
2023/09/16 08:36:39;;;;;;;0.10;0.10;;;;;;;22.74;100.00;98921.72;5112910;28;20669;-55
2023/09/16 08:39:26;;;;;;;0.10;0.10;;;;;;;22.78;100.00;98923.06;5112379;28;20236;-55
2023/09/16 08:42:22;;;;;;;0.10;0.10;;;;;;;22.97;100.00;98927.13;5113287;28;20194;-55
2023/09/16 08:45:15;;;;;;;0.10;0.10;;;;;;;23.07;100.00;98935.84;5111850;28;20202;-55
2023/09/16 08:48:06;;;;;;;0.10;0.10;;;;;;;22.88;100.00;98928.25;5112856;28;20191;-55
2023/09/16 08:50:57;;;;;;;0.10;0.10;;;;;;;23.05;100.00;98944.09;5112205;28;20272;-55
2023/09/16 08:53:45;;;;;;;0.10;0.10;;;;;;;23.16;100.00;98931.16;5113017;28;20312;-55
2023/09/16 08:56:33;;;;;;;0.10;0.10;;;;;;;23.03;100.00;98939.91;5112942;28;20194;-56
2023/09/16 08:59:21;;;;;;;0.10;0.10;;;;;;;23.50;100.00;98936.91;5112672;28;20279;-56
2023/09/16 09:02:09;;;;;;;0.10;0.10;;;;;;;23.69;100.00;98936.38;5111571;28;20206;-55
2023/09/16 09:04:56;;;;;;;0.10;0.10;;;;;;;23.43;100.00;98935.94;5112296;28;20195;-55
2023/09/16 09:07:44;;;;;;;0.10;0.10;;;;;;;23.67;100.00;98945.69;5112137;28;20311;-55
2023/09/16 09:10:31;;;;;;;0.10;0.10;;;;;;;23.91;100.00;98947.25;5112901;28;20198;-56
2023/09/16 09:13:20;;;;;;;0.10;0.10;;;;;;;23.82;100.00;98945.66;5112405;28;20200;-55
2023/09/16 09:16:09;;;;;;;0.10;0.10;;;;;;;24.08;100.00;98947.88;5110935;28;20193;-55
2023/09/16 09:18:57;;;;;;;0.10;0.10;;;;;;;24.29;100.00;98945.19;5112415;28;20202;-55
2023/09/16 09:21:45;;;;;;;0.10;0.10;;;;;;;24.44;100.00;98943.34;5112191;28;20202;-55
2023/09/16 09:24:33;;;;;;;0.10;0.10;;;;;;;24.31;100.00;98945.88;5112797;28;20187;-56
2023/09/16 09:27:19;;;;;;;0.10;0.10;;;;;;;24.68;100.00;98949.38;5110938;28;20214;-55
2023/09/16 09:30:07;;;;;;;0.10;0.10;;;;;;;24.81;100.00;98944.94;5111343;28;20210;-55
2023/09/16 09:32:56;;;;;;;0.00;0.00;;;;;;;25.01;100.00;98947.00;5112436;28;20248;-55
2023/09/16 09:35:43;;;;;;;0.10;0.10;;;;;;;25.23;100.00;98939.69;5111926;28;20190;-56
2023/09/16 09:38:30;;;;;;;0.10;0.10;;;;;;;24.80;100.00;98939.69;5112338;28;20676;-56
2023/09/16 09:41:17;;;;;;;0.10;0.10;;;;;;;24.46;100.00;98933.13;5113162;28;20197;-55
2023/09/16 09:44:04;;;;;;;0.10;0.10;;;;;;;25.33;100.00;98937.44;5113240;28;20199;-55
2023/09/16 09:46:51;;;;;;;0.10;0.10;;;;;;;25.56;100.00;98946.16;5111517;28;20257;-56
2023/09/16 09:49:40;;;;;;;0.00;0.00;;;;;;;25.55;100.00;98941.75;5112942;28;20696;-55
2023/09/16 09:52:27;;;;;;;0.10;0.10;;;;;;;25.79;100.00;98937.75;5112998;28;20198;-55
2023/09/16 09:55:16;;;;;;;0.10;0.10;;;;;;;26.21;97.72;98944.81;5112643;28;20198;-56
2023/09/16 09:58:04;;;;;;;0.10;0.10;;;;;;;25.96;100.00;98943.66;5112940;28;20270;-55
2023/09/16 10:00:52;;;;;;;0.10;0.10;;;;;;;26.33;98.79;98942.34;5111385;28;20187;-56
2023/09/16 10:03:40;;;;;;;0.08;0.08;;;;;;;26.75;94.63;98938.50;5112366;28;20198;-55
2023/09/16 10:06:28;;;;;;;0.10;0.10;;;;;;;27.46;88.36;98935.13;5112648;28;20210;-55
2023/09/16 10:09:16;;;;;;;0.10;0.10;;;;;;;27.55;85.93;98933.88;5112817;28;20305;-56
2023/09/16 10:12:03;;;;;;;0.10;0.10;;;;;;;29.28;73.45;98941.97;5112878;28;20243;-56
2023/09/16 10:14:52;;;;;;;0.00;0.00;;;;;;;30.82;61.59;98931.72;5112823;28;20203;-56
2023/09/16 10:17:39;;;;;;;0.00;0.00;;;;;;;31.34;59.93;98930.00;5112679;28;20190;-56
2023/09/16 10:20:30;;;;;;;0.00;0.00;;;;;;;32.24;53.75;98931.41;5112899;28;20189;-57
2023/09/16 10:23:18;;;;;;;0.00;0.00;;;;;;;32.60;52.35;98944.75;5112603;28;20222;-57
2023/09/16 10:26:05;;;;;;;0.00;0.00;;;;;;;33.00;49.87;98932.84;5112573;28;20266;-56
2023/09/16 10:28:53;;;;;;;0.00;0.00;;;;;;;32.54;53.08;98928.47;5114497;28;20332;-56
2023/09/16 10:31:43;;;;;;;0.00;0.00;;;;;;;34.30;48.00;98928.66;5115146;28;20672;-56
2023/09/16 10:34:31;;;;;;;0.00;0.00;;;;;;;34.94;45.48;98927.97;5116181;28;20190;-56
2023/09/16 10:37:18;;;;;;;0.00;0.00;;;;;;;33.60;48.14;98932.16;5116174;28;20198;-56
2023/09/16 10:40:08;;;;;;;0.00;0.00;;;;;;;36.43;42.04;98933.28;5116188;28;20182;-56
2023/09/16 10:42:57;;;;;;;0.00;0.00;;;;;;;35.68;42.60;98927.94;5115866;28;20284;-56
2023/09/16 10:45:44;;;;;;;0.00;0.00;;;;;;;34.60;44.86;98933.69;5114949;28;20197;-56
2023/09/16 10:48:31;;;;;;;0.00;0.00;;;;;;;35.68;42.91;98922.44;5115777;28;20225;-57
2023/09/16 10:51:23;;;;;;;0.00;0.00;;;;;;;36.88;40.27;98925.09;5115886;28;20198;-57
2023/09/16 10:54:18;;;;;;;0.00;0.00;;;;;;;37.36;40.20;98925.63;5115924;28;20320;-57
2023/09/16 10:57:12;;;;;;;0.00;0.00;;;;;;;37.61;38.03;98921.16;5115866;28;20559;-57
2023/09/16 11:00:04;;;;;;;0.00;0.00;;;;;;;37.11;39.25;98931.16;5114403;28;20657;-57
2023/09/16 11:02:57;;;;;;;0.00;0.00;;;;;;;38.58;36.62;98929.88;5115886;28;20561;-55
2023/09/16 11:05:44;;;;;;;0.00;0.00;;;;;;;38.20;37.03;98920.38;5115070;28;20257;-56
2023/09/16 11:08:32;;;;;;;0.00;0.00;;;;;;;39.89;34.89;98932.63;5115486;28;20218;-56
2023/09/16 11:11:20;;;;;;;0.00;0.00;;;;;;;39.61;34.39;98925.19;5115680;28;20223;-56
2023/09/16 11:14:10;;;;;;;0.00;0.00;;;;;;;39.78;34.00;98925.53;5114986;28;20297;-56
2023/09/16 11:16:58;;;;;;;0.00;0.00;;;;;;;38.39;35.27;98921.41;5113982;28;20279;-56
2023/09/16 11:19:46;;;;;;;0.00;0.00;;;;;;;38.20;37.23;98914.84;5115152;28;20186;-56
2023/09/16 11:22:32;;;;;;;0.00;0.00;;;;;;;39.49;34.62;98912.53;5113824;28;20237;-56
2023/09/16 11:25:19;;;;;;;0.00;0.00;;;;;;;39.83;33.70;98922.69;5115195;28;20388;-56
2023/09/16 11:28:09;;;;;;;0.00;0.00;;;;;;;38.95;36.00;98921.03;5114924;28;20289;-56
2023/09/16 11:30:59;;;;;;;0.00;0.00;;;;;;;40.28;33.54;98921.31;5113355;28;20194;-56
2023/09/16 11:33:47;;;;;;;0.00;0.00;;;;;;;38.02;37.69;98910.78;5115207;28;20194;-56
2023/09/16 11:36:35;;;;;;;0.00;0.00;;;;;;;38.51;36.67;98913.59;5115102;28;20198;-56
2023/09/16 11:39:24;;;;;;;0.00;0.00;;;;;;;38.37;36.59;98909.81;5114583;28;20205;-56
2023/09/16 11:42:12;;;;;;;0.00;0.00;;;;;;;39.38;34.68;98913.75;5115136;28;20194;-56
2023/09/16 11:44:59;;;;;;;0.00;0.00;;;;;;;39.02;34.52;98907.69;5113848;28;20239;-56
2023/09/16 11:47:50;;;;;;;0.00;0.00;;;;;;;39.16;34.32;98905.91;5114739;28;20557;-56
2023/09/16 11:50:38;;;;;;;0.00;0.00;;;;;;;39.70;33.92;98896.50;5114655;28;20198;-56
2023/09/16 11:53:25;;;;;;;0.00;0.00;;;;;;;41.27;32.25;98894.47;5114727;28;20197;-56
2023/09/16 11:56:12;;;;;;;0.00;0.00;;;;;;;40.85;32.67;98887.97;5113637;28;20201;-57
2023/09/16 11:59:00;;;;;;;0.00;0.00;;;;;;;40.35;33.31;98893.19;5114530;28;20202;-56
2023/09/16 12:01:48;;;;;;;0.00;0.00;;;;;;;40.89;33.19;98887.09;5113270;28;20194;-56
2023/09/16 12:04:37;;;;;;;0.00;0.00;;;;;;;42.68;30.71;98887.09;5114609;28;20197;-56
2023/09/16 12:07:25;;;;;;;0.00;0.00;;;;;;;41.91;31.09;98882.41;5114385;28;20695;-56
2023/09/16 12:10:12;;;;;;;0.00;0.00;;;;;;;41.98;30.41;98868.03;5114475;28;20194;-56
2023/09/16 12:12:59;;;;;;;0.00;0.00;;;;;;;41.26;31.86;98868.63;5114458;28;20198;-56
2023/09/16 12:15:48;;;;;;;0.00;0.00;;;;;;;41.79;31.92;98870.13;5112996;28;20198;-56
2023/09/16 12:18:35;;;;;;;0.00;0.00;;;;;;;43.08;29.72;98867.72;5114326;28;20194;-57
2023/09/16 12:21:24;;;;;;;0.00;0.00;;;;;;;44.89;28.00;98864.53;5114383;28;20198;-58
2023/09/16 12:24:16;;;;;;;0.00;0.00;;;;;;;44.86;27.73;98870.78;5114241;28;20264;-57
2023/09/16 12:27:07;;;;;;;0.00;0.00;;;;;;;41.11;31.40;98858.59;5114023;28;20197;-56
2023/09/16 12:29:54;;;;;;;0.00;0.00;;;;;;;40.49;33.20;98858.00;5112906;28;20725;-58
2023/09/16 12:32:50;;;;;;;0.00;0.00;;;;;;;41.89;30.29;98858.81;5113887;28;20186;-57
2023/09/16 12:35:40;;;;;;;0.00;0.00;;;;;;;42.12;31.50;98846.63;5113669;28;20263;-57
2023/09/16 12:38:29;;;;;;;0.00;0.00;;;;;;;39.80;33.84;98853.13;5113949;28;20256;-57
2023/09/16 12:41:16;;;;;;;0.00;0.00;;;;;;;42.61;30.47;98850.50;5113884;28;20198;-57
2023/09/16 12:44:04;;;;;;;0.00;0.00;;;;;;;43.25;29.80;98845.50;5113578;28;20193;-57
2023/09/16 12:46:51;;;;;;;0.00;0.00;;;;;;;44.07;28.76;98846.75;5112352;28;20193;-57
2023/09/16 12:49:40;;;;;;;0.00;0.00;;;;;;;44.95;27.83;98835.25;5113522;28;20288;-57
2023/09/16 12:52:27;;;;;;;0.00;0.00;;;;;;;44.86;27.81;98823.25;5112923;28;20336;-57
2023/09/16 12:55:16;;;;;;;0.00;0.00;;;;;;;44.79;28.21;98834.13;5113635;28;20196;-57
2023/09/16 12:58:05;;;;;;;0.00;0.00;;;;;;;45.71;26.94;98822.47;5113485;28;20304;-57
2023/09/16 13:00:53;;;;;;;0.00;0.00;;;;;;;44.74;28.35;98834.28;5112039;28;20222;-57
2023/09/16 13:03:41;;;;;;;0.00;0.00;;;;;;;43.14;29.16;98836.59;5113535;28;20202;-57